Terminal Aerodrome Forecast
Issued by NWS Brownsville, TX

Home | Current Version | Previous Version | Text Only | Print | Product List | Glossary On
Versions: 1 2 3 4 5 6 7 8 9 10 11 12 13 14 15 16 17 18 19
000
FTUS44 KBRO 280233 AAA
TAFHRL
TAF AMD
KHRL 280233Z 2803/2824 11008KT P6SM BKN025
      TEMPO 2803/2805 SCT025
     FM280600 14008KT P6SM BKN015
     FM281500 15017G25KT P6SM SCT025 BKN035
     FM281800 16024G32KT P6SM SCT040 SCT250=

USA.gov is the U.S. government's official web portal to all federal, state and local government web resources and services.